Airfield :
LOGIN :

Register | Disclaimer

   EN    FR    IT 

 










Legend :    VFR   Marginal VFR   IFR   Intensive IFR   Very Intensive IFR
Visi :
Ceiling :
>= 8 km
>= 3000ft
5 to 8 km
1000 to 3000 ft
1500m to 5 km
500 to 1000 ft
800 to 1500m
200 to 500 ft
< 800m
< 200 ft
Symbols :   Thunderstorms  Fog  Heavy snow  Heavy precipitations  Wind > 20 kt
SIGMETs :     Misc.  Thunderstorms  Icing  Turbulence  Mountain Waves  Volcanic Ashes






- Airport Elevation : 26 ft
- IATA code : GLA


EGPF - Glasgow

CURRENT METAR :
  • 150920Z AUTO 04006KT 9000 -RA NCD 17/15 Q1003

EXPIRED METARs :
  • 150850Z AUTO 04006KT 5000 -RA //////TCU 16/15 Q1003
  • 150820Z AUTO 04006KT 5000 -RA //////CB 16/15 Q1003
  • 150750Z AUTO 04008KT 5000 -RA BKN014/// //////CB 16/15 Q1004
  • 150720Z AUTO 11003KT 070V140 9000 FEW015/// //////TCU 17/15 Q1004
  • 150650Z AUTO 06004KT 7000 NCD 16/16 Q1003

TAF TAF EGPF
Valid from the 15 at 06:00 until the 16 at 06:00 UTC


150456Z 1506/1606 05005KT 9999 FEW040
PROB40
TEMPO 1506/1509 4000 SHRA BR BKN012
TEMPO 1509/1604 5000 RA SHRA BKN012
PROB40
TEMPO 1509/1604 3000 +RA +SHRA BKN009 BKN040CB
PROB30
TEMPO 1518/1603 TS
TEMPO 1604/1606 BKN012
ATIS : +44 141 887 7449



MET'MAP, your aeronautical weather chart ! - Copyright ORBIFLY December 2007 - Disclaimer

ORBIFLY MET'MAP TEAM :

Programming & Development : Alexandra Zaïnal
Original concept : Baudouin d'Aumeries
Technical & hardware support : Manuel Goepfert
Assistance : Marc-Olivier Méhu




SOURCES & CREDITS :

   NOAA